Decoded Metar for KHON (HURON in SD, USA) (IATA:HON) | Meteo·Mobile Aviation Weather
aviador You're here:

KHON Decoded Metar

HURON in SD, USA
Report Time2019-10-18 12:55:00
UTC Time2019-10-18 13:16:15
Flight Rules vfr VFR
Wind160° at 15 Gusting to 25 kt
W.Decomp.*RWY 17: 14.3 kt HW 4.4 kt LCW
RWY 12: 12.6 kt HW 8.2 kt RCW
Visibility9999 m
Phenomena:N/A
Clouds:N/A
Expected CloudBase > 1,200 ft AGL from Temp-Dew spread
CeilingNone
Temp09°C (ISA -3)
Dew Point06°C (82% RH)
AAT2.7°C
QNH997 hPa
Density Alt1,545 ft
Elevation1,280 ft
Report Wrong Elevation
Raw Report
KHON 181255Z AUTO 16015G25KT 10SM CLR 09/06 A2944 RMK AO2 PK WND
14028/1228 SLP972 T00940061=

Extra information for KHON:More info

Metar Taf Metar & Taf Last 4 Metars F.Rules Stats Wind Profile Meteogram Temp Stats Airport Information Weather charts Add Link Nearby VenuesMetar ALERT Operation Metar Decoded Social comments

AIRNAV info for KHON